Terminal Aerodrome Forecast
Issued by NWS Charleston, WV

Home | Current Version | Previous Version | Text Only | Print | Product List | Glossary On
Versions: 1 2 3 4 5 6 7 8 9 10 11 12 13 14 15 16 17 18 19 20 21 22 23 24 25
000
FTUS41 KRLX 160200 AAA
TAFHTS
TAF AMD
KHTS 160224Z 1602/1624 VRB03KT P6SM SCT025
      TEMPO 1603/1606 6SM -SHRA BKN040
     FM161100 VRB03KT 6SM BR BKN035
     FM161300 VRB03KT 6SM BR OVC025
     FM161500 00000KT P6SM BKN015
     FM161700 VRB03KT P6SM BKN025
     FM162000 35004KT P6SM BKN035
     FM162100 34005KT P6SM SCT040=

USA.gov is the U.S. government's official web portal to all federal, state and local government web resources and services.